sensor_id;sensor_type;location;lat;lon;timestamp;P1;durP1;ratioP1;P2;durP2;ratioP2
11970;SDS011;6045;42.682;23.294;2022-11-15T00:01:11;22.80;;;12.27;;
11970;SDS011;6045;42.682;23.294;2022-11-15T00:03:41;14.80;;;9.07;;
11970;SDS011;6045;42.682;23.294;2022-11-15T00:06:08;15.50;;;10.17;;
11970;SDS011;6045;42.682;23.294;2022-11-15T00:08:35;15.83;;;9.23;;
11970;SDS011;6045;42.682;23.294;2022-11-15T00:11:02;21.47;;;9.97;;
11970;SDS011;6045;42.682;23.294;2022-11-15T00:13:29;14.47;;;8.00;;
11970;SDS011;6045;42.682;23.294;2022-11-15T00:15:57;21.03;;;9.73;;
11970;SDS011;6045;42.682;23.294;2022-11-15T00:18:26;13.97;;;9.97;;
11970;SDS011;6045;42.682;23.294;2022-11-15T00:20:53;18.77;;;9.17;;
11970;SDS011;6045;42.682;23.294;2022-11-15T00:23:20;15.10;;;8.97;;
11970;SDS011;6045;42.682;23.294;2022-11-15T00:25:46;14.83;;;9.20;;
11970;SDS011;6045;42.682;23.294;2022-11-15T00:28:13;12.63;;;10.13;;
11970;SDS011;6045;42.682;23.294;2022-11-15T00:30:43;20.13;;;9.47;;
11970;SDS011;6045;42.682;23.294;2022-11-15T00:33:09;16.73;;;9.77;;
11970;SDS011;6045;42.682;23.294;2022-11-15T00:35:38;20.10;;;9.83;;
11970;SDS011;6045;42.682;23.294;2022-11-15T00:38:04;20.47;;;11.43;;
11970;SDS011;6045;42.682;23.294;2022-11-15T00:40:31;20.83;;;11.07;;
11970;SDS011;6045;42.682;23.294;2022-11-15T00:42:58;23.57;;;11.30;;
11970;SDS011;6045;42.682;23.294;2022-11-15T00:45:25;15.37;;;8.47;;
11970;SDS011;6045;42.682;23.294;2022-11-15T00:47:52;14.97;;;8.40;;
11970;SDS011;6045;42.682;23.294;2022-11-15T00:50:19;17.40;;;10.10;;
11970;SDS011;6045;42.682;23.294;2022-11-15T00:52:47;15.53;;;9.13;;
11970;SDS011;6045;42.682;23.294;2022-11-15T00:55:14;17.60;;;11.30;;
11970;SDS011;6045;42.682;23.294;2022-11-15T00:57:42;14.73;;;8.67;;
11970;SDS011;6045;42.682;23.294;2022-11-15T01:00:09;19.40;;;9.13;;
11970;SDS011;6045;42.682;23.294;2022-11-15T01:02:36;18.23;;;9.97;;
11970;SDS011;6045;42.682;23.294;2022-11-15T01:05:03;11.27;;;9.03;;
11970;SDS011;6045;42.682;23.294;2022-11-15T01:07:31;13.70;;;8.90;;
11970;SDS011;6045;42.682;23.294;2022-11-15T01:09:59;16.93;;;9.57;;
11970;SDS011;6045;42.682;23.294;2022-11-15T01:12:26;16.27;;;10.37;;
11970;SDS011;6045;42.682;23.294;2022-11-15T01:14:52;15.47;;;9.27;;
11970;SDS011;6045;42.682;23.294;2022-11-15T01:17:19;13.73;;;9.33;;
11970;SDS011;6045;42.682;23.294;2022-11-15T01:19:46;11.73;;;7.47;;
11970;SDS011;6045;42.682;23.294;2022-11-15T01:22:13;19.40;;;10.53;;
11970;SDS011;6045;42.682;23.294;2022-11-15T01:24:39;10.93;;;8.23;;
11970;SDS011;6045;42.682;23.294;2022-11-15T01:27:08;13.10;;;8.70;;
11970;SDS011;6045;42.682;23.294;2022-11-15T01:29:36;17.87;;;9.33;;
11970;SDS011;6045;42.682;23.294;2022-11-15T01:32:03;14.60;;;10.10;;
11970;SDS011;6045;42.682;23.294;2022-11-15T01:34:30;15.57;;;8.73;;
11970;SDS011;6045;42.682;23.294;2022-11-15T01:36:57;15.63;;;9.23;;
11970;SDS011;6045;42.682;23.294;2022-11-15T01:39:24;14.33;;;8.23;;
11970;SDS011;6045;42.682;23.294;2022-11-15T01:41:51;18.50;;;8.93;;
11970;SDS011;6045;42.682;23.294;2022-11-15T01:44:39;16.77;;;9.10;;
11970;SDS011;6045;42.682;23.294;2022-11-15T01:47:08;13.57;;;7.57;;
11970;SDS011;6045;42.682;23.294;2022-11-15T01:49:41;12.73;;;8.00;;
11970;SDS011;6045;42.682;23.294;2022-11-15T01:52:16;15.13;;;8.07;;
11970;SDS011;6045;42.682;23.294;2022-11-15T01:54:45;15.93;;;8.80;;
11970;SDS011;6045;42.682;23.294;2022-11-15T01:57:12;10.13;;;6.83;;
11970;SDS011;6045;42.682;23.294;2022-11-15T01:59:42;13.10;;;9.97;;
11970;SDS011;6045;42.682;23.294;2022-11-15T02:02:11;12.97;;;7.43;;
11970;SDS011;6045;42.682;23.294;2022-11-15T02:04:40;12.30;;;8.50;;
11970;SDS011;6045;42.682;23.294;2022-11-15T02:07:11;17.20;;;8.20;;
11970;SDS011;6045;42.682;23.294;2022-11-15T02:09:39;13.27;;;7.77;;
11970;SDS011;6045;42.682;23.294;2022-11-15T02:12:07;12.73;;;9.13;;
11970;SDS011;6045;42.682;23.294;2022-11-15T02:14:36;16.27;;;9.47;;
11970;SDS011;6045;42.682;23.294;2022-11-15T02:17:08;16.70;;;9.33;;
11970;SDS011;6045;42.682;23.294;2022-11-15T02:19:58;18.33;;;9.77;;
11970;SDS011;6045;42.682;23.294;2022-11-15T02:22:55;12.70;;;8.87;;
11970;SDS011;6045;42.682;23.294;2022-11-15T02:25:38;15.00;;;7.53;;
11970;SDS011;6045;42.682;23.294;2022-11-15T02:28:21;20.97;;;9.50;;
11970;SDS011;6045;42.682;23.294;2022-11-15T02:31:04;21.00;;;9.73;;
11970;SDS011;6045;42.682;23.294;2022-11-15T02:33:39;10.47;;;8.87;;
11970;SDS011;6045;42.682;23.294;2022-11-15T02:36:12;19.90;;;9.80;;
11970;SDS011;6045;42.682;23.294;2022-11-15T02:38:44;19.60;;;10.80;;
11970;SDS011;6045;42.682;23.294;2022-11-15T02:41:17;16.43;;;10.30;;
11970;SDS011;6045;42.682;23.294;2022-11-15T02:43:51;20.87;;;11.20;;
11970;SDS011;6045;42.682;23.294;2022-11-15T02:46:27;16.93;;;10.27;;
11970;SDS011;6045;42.682;23.294;2022-11-15T02:49:17;22.73;;;12.87;;
11970;SDS011;6045;42.682;23.294;2022-11-15T02:51:44;23.20;;;13.23;;
11970;SDS011;6045;42.682;23.294;2022-11-15T02:54:15;22.67;;;13.37;;
11970;SDS011;6045;42.682;23.294;2022-11-15T02:56:46;19.17;;;12.23;;
11970;SDS011;6045;42.682;23.294;2022-11-15T02:59:17;14.93;;;11.00;;
11970;SDS011;6045;42.682;23.294;2022-11-15T03:02:02;19.63;;;13.37;;
11970;SDS011;6045;42.682;23.294;2022-11-15T03:04:42;23.37;;;12.97;;
11970;SDS011;6045;42.682;23.294;2022-11-15T03:07:12;24.60;;;12.70;;
11970;SDS011;6045;42.682;23.294;2022-11-15T03:09:45;18.77;;;11.13;;
11970;SDS011;6045;42.682;23.294;2022-11-15T03:12:22;21.33;;;12.03;;
11970;SDS011;6045;42.682;23.294;2022-11-15T03:14:54;21.23;;;11.93;;
11970;SDS011;6045;42.682;23.294;2022-11-15T03:17:27;14.97;;;13.00;;
11970;SDS011;6045;42.682;23.294;2022-11-15T03:19:57;21.90;;;13.17;;
11970;SDS011;6045;42.682;23.294;2022-11-15T03:22:28;20.43;;;13.47;;
11970;SDS011;6045;42.682;23.294;2022-11-15T03:25:00;17.70;;;12.60;;
11970;SDS011;6045;42.682;23.294;2022-11-15T03:27:31;21.17;;;12.73;;
11970;SDS011;6045;42.682;23.294;2022-11-15T03:30:03;26.73;;;13.63;;
11970;SDS011;6045;42.682;23.294;2022-11-15T03:32:34;25.90;;;13.37;;
11970;SDS011;6045;42.682;23.294;2022-11-15T03:35:05;24.27;;;13.00;;
11970;SDS011;6045;42.682;23.294;2022-11-15T03:37:35;19.80;;;12.23;;
11970;SDS011;6045;42.682;23.294;2022-11-15T03:40:07;22.30;;;11.33;;
11970;SDS011;6045;42.682;23.294;2022-11-15T03:42:36;19.13;;;13.57;;
11970;SDS011;6045;42.682;23.294;2022-11-15T03:45:10;24.60;;;13.87;;
11970;SDS011;6045;42.682;23.294;2022-11-15T03:47:43;22.10;;;13.47;;
11970;SDS011;6045;42.682;23.294;2022-11-15T03:50:16;29.70;;;13.37;;
11970;SDS011;6045;42.682;23.294;2022-11-15T03:52:46;20.53;;;12.67;;
11970;SDS011;6045;42.682;23.294;2022-11-15T03:55:15;29.83;;;14.77;;
11970;SDS011;6045;42.682;23.294;2022-11-15T03:57:43;21.87;;;12.10;;
11970;SDS011;6045;42.682;23.294;2022-11-15T04:00:11;21.40;;;12.63;;
11970;SDS011;6045;42.682;23.294;2022-11-15T04:02:38;23.47;;;10.43;;
11970;SDS011;6045;42.682;23.294;2022-11-15T04:05:06;21.13;;;11.83;;
11970;SDS011;6045;42.682;23.294;2022-11-15T04:07:38;18.47;;;13.60;;
11970;SDS011;6045;42.682;23.294;2022-11-15T04:10:05;26.67;;;11.70;;
11970;SDS011;6045;42.682;23.294;2022-11-15T04:12:33;20.70;;;11.17;;
11970;SDS011;6045;42.682;23.294;2022-11-15T04:15:02;22.10;;;10.67;;
11970;SDS011;6045;42.682;23.294;2022-11-15T04:17:34;20.53;;;12.73;;
11970;SDS011;6045;42.682;23.294;2022-11-15T04:20:02;22.90;;;11.63;;
11970;SDS011;6045;42.682;23.294;2022-11-15T04:22:48;14.60;;;10.53;;
11970;SDS011;6045;42.682;23.294;2022-11-15T04:25:36;19.37;;;11.70;;
11970;SDS011;6045;42.682;23.294;2022-11-15T04:28:03;28.20;;;13.10;;
11970;SDS011;6045;42.682;23.294;2022-11-15T04:30:30;19.47;;;10.73;;
11970;SDS011;6045;42.682;23.294;2022-11-15T04:32:57;17.33;;;9.37;;
11970;SDS011;6045;42.682;23.294;2022-11-15T04:35:23;25.83;;;12.17;;
11970;SDS011;6045;42.682;23.294;2022-11-15T04:37:52;19.23;;;11.87;;
11970;SDS011;6045;42.682;23.294;2022-11-15T04:40:18;20.30;;;10.47;;
11970;SDS011;6045;42.682;23.294;2022-11-15T04:42:45;16.80;;;10.83;;
11970;SDS011;6045;42.682;23.294;2022-11-15T04:45:11;27.73;;;11.90;;
11970;SDS011;6045;42.682;23.294;2022-11-15T04:47:38;22.43;;;11.33;;
11970;SDS011;6045;42.682;23.294;2022-11-15T04:50:05;21.70;;;11.40;;
11970;SDS011;6045;42.682;23.294;2022-11-15T04:52:33;22.30;;;10.70;;
11970;SDS011;6045;42.682;23.294;2022-11-15T04:55:01;21.47;;;11.00;;
11970;SDS011;6045;42.682;23.294;2022-11-15T04:57:28;19.33;;;10.80;;
11970;SDS011;6045;42.682;23.294;2022-11-15T04:59:55;20.73;;;13.13;;
11970;SDS011;6045;42.682;23.294;2022-11-15T05:02:21;22.03;;;11.47;;
11970;SDS011;6045;42.682;23.294;2022-11-15T05:04:48;19.67;;;12.37;;
11970;SDS011;6045;42.682;23.294;2022-11-15T05:07:14;23.20;;;12.23;;
11970;SDS011;6045;42.682;23.294;2022-11-15T05:09:41;19.83;;;10.67;;
11970;SDS011;6045;42.682;23.294;2022-11-15T05:12:09;17.57;;;9.17;;
11970;SDS011;6045;42.682;23.294;2022-11-15T05:14:36;25.77;;;10.47;;
11970;SDS011;6045;42.682;23.294;2022-11-15T05:17:02;26.87;;;15.03;;
11970;SDS011;6045;42.682;23.294;2022-11-15T05:19:32;27.10;;;11.47;;
11970;SDS011;6045;42.682;23.294;2022-11-15T05:21:59;32.03;;;14.77;;
11970;SDS011;6045;42.682;23.294;2022-11-15T05:24:25;22.50;;;11.17;;
11970;SDS011;6045;42.682;23.294;2022-11-15T05:26:52;21.37;;;12.23;;
11970;SDS011;6045;42.682;23.294;2022-11-15T05:29:20;27.73;;;12.07;;
11970;SDS011;6045;42.682;23.294;2022-11-15T05:31:47;23.87;;;12.50;;
11970;SDS011;6045;42.682;23.294;2022-11-15T05:34:14;23.93;;;13.47;;
11970;SDS011;6045;42.682;23.294;2022-11-15T05:36:42;24.63;;;12.37;;
11970;SDS011;6045;42.682;23.294;2022-11-15T05:39:10;35.73;;;11.67;;
11970;SDS011;6045;42.682;23.294;2022-11-15T05:41:39;38.93;;;14.17;;
11970;SDS011;6045;42.682;23.294;2022-11-15T05:44:09;22.87;;;12.20;;
11970;SDS011;6045;42.682;23.294;2022-11-15T05:46:39;28.00;;;12.03;;
11970;SDS011;6045;42.682;23.294;2022-11-15T05:49:07;29.63;;;13.27;;
11970;SDS011;6045;42.682;23.294;2022-11-15T05:51:37;30.33;;;14.63;;
11970;SDS011;6045;42.682;23.294;2022-11-15T05:54:04;28.53;;;13.00;;
11970;SDS011;6045;42.682;23.294;2022-11-15T05:56:31;21.33;;;12.00;;
11970;SDS011;6045;42.682;23.294;2022-11-15T05:58:58;21.17;;;11.80;;
11970;SDS011;6045;42.682;23.294;2022-11-15T06:01:25;22.33;;;11.60;;
11970;SDS011;6045;42.682;23.294;2022-11-15T06:03:54;18.97;;;12.33;;
11970;SDS011;6045;42.682;23.294;2022-11-15T06:06:21;27.63;;;11.27;;
11970;SDS011;6045;42.682;23.294;2022-11-15T06:08:48;29.27;;;12.60;;
11970;SDS011;6045;42.682;23.294;2022-11-15T06:11:15;20.37;;;12.10;;
11970;SDS011;6045;42.682;23.294;2022-11-15T06:13:41;27.60;;;12.00;;
11970;SDS011;6045;42.682;23.294;2022-11-15T06:16:08;33.60;;;14.07;;
11970;SDS011;6045;42.682;23.294;2022-11-15T06:18:35;32.60;;;13.50;;
11970;SDS011;6045;42.682;23.294;2022-11-15T06:21:04;20.57;;;10.67;;
11970;SDS011;6045;42.682;23.294;2022-11-15T06:23:31;38.57;;;16.47;;
11970;SDS011;6045;42.682;23.294;2022-11-15T06:26:00;25.97;;;12.87;;
11970;SDS011;6045;42.682;23.294;2022-11-15T06:28:29;31.70;;;13.23;;
11970;SDS011;6045;42.682;23.294;2022-11-15T06:31:01;27.10;;;13.00;;
11970;SDS011;6045;42.682;23.294;2022-11-15T06:33:28;24.37;;;12.50;;
11970;SDS011;6045;42.682;23.294;2022-11-15T06:35:55;37.53;;;14.17;;
11970;SDS011;6045;42.682;23.294;2022-11-15T06:38:27;18.60;;;13.60;;
11970;SDS011;6045;42.682;23.294;2022-11-15T06:40:53;38.83;;;12.67;;
11970;SDS011;6045;42.682;23.294;2022-11-15T06:43:20;25.13;;;14.67;;
11970;SDS011;6045;42.682;23.294;2022-11-15T06:45:47;25.47;;;13.23;;
11970;SDS011;6045;42.682;23.294;2022-11-15T06:48:14;32.23;;;17.63;;
11970;SDS011;6045;42.682;23.294;2022-11-15T06:50:40;27.43;;;11.90;;
11970;SDS011;6045;42.682;23.294;2022-11-15T06:53:07;32.60;;;14.17;;
11970;SDS011;6045;42.682;23.294;2022-11-15T06:55:35;22.93;;;12.40;;
11970;SDS011;6045;42.682;23.294;2022-11-15T06:58:02;18.10;;;12.00;;
11970;SDS011;6045;42.682;23.294;2022-11-15T07:00:31;24.47;;;13.80;;
11970;SDS011;6045;42.682;23.294;2022-11-15T07:02:59;25.07;;;14.20;;
11970;SDS011;6045;42.682;23.294;2022-11-15T07:05:26;30.90;;;14.17;;
11970;SDS011;6045;42.682;23.294;2022-11-15T07:07:52;29.43;;;12.23;;
11970;SDS011;6045;42.682;23.294;2022-11-15T07:10:21;31.40;;;13.37;;
11970;SDS011;6045;42.682;23.294;2022-11-15T07:12:51;32.53;;;17.27;;
11970;SDS011;6045;42.682;23.294;2022-11-15T07:15:19;30.50;;;14.40;;
11970;SDS011;6045;42.682;23.294;2022-11-15T07:17:47;31.77;;;14.90;;
11970;SDS011;6045;42.682;23.294;2022-11-15T07:20:14;28.20;;;10.80;;
11970;SDS011;6045;42.682;23.294;2022-11-15T07:22:41;18.17;;;11.43;;
11970;SDS011;6045;42.682;23.294;2022-11-15T07:25:10;25.73;;;10.77;;
11970;SDS011;6045;42.682;23.294;2022-11-15T07:27:37;19.40;;;11.03;;
11970;SDS011;6045;42.682;23.294;2022-11-15T07:30:06;20.50;;;11.83;;
11970;SDS011;6045;42.682;23.294;2022-11-15T07:32:34;16.13;;;10.00;;
11970;SDS011;6045;42.682;23.294;2022-11-15T07:35:00;19.47;;;12.50;;
11970;SDS011;6045;42.682;23.294;2022-11-15T07:37:27;28.33;;;11.10;;
11970;SDS011;6045;42.682;23.294;2022-11-15T07:39:54;29.03;;;14.87;;
11970;SDS011;6045;42.682;23.294;2022-11-15T07:42:21;24.87;;;10.17;;
11970;SDS011;6045;42.682;23.294;2022-11-15T07:45:06;19.60;;;10.23;;
11970;SDS011;6045;42.682;23.294;2022-11-15T07:47:34;26.93;;;12.70;;
11970;SDS011;6045;42.682;23.294;2022-11-15T07:50:01;22.63;;;10.83;;
11970;SDS011;6045;42.682;23.294;2022-11-15T07:52:27;17.90;;;8.50;;
11970;SDS011;6045;42.682;23.294;2022-11-15T07:54:54;24.83;;;11.57;;
11970;SDS011;6045;42.682;23.294;2022-11-15T07:57:21;22.40;;;10.40;;
11970;SDS011;6045;42.682;23.294;2022-11-15T07:59:48;25.87;;;12.33;;
11970;SDS011;6045;42.682;23.294;2022-11-15T08:02:16;23.57;;;11.37;;
11970;SDS011;6045;42.682;23.294;2022-11-15T08:04:42;26.53;;;13.10;;
11970;SDS011;6045;42.682;23.294;2022-11-15T08:07:10;29.83;;;13.00;;
11970;SDS011;6045;42.682;23.294;2022-11-15T08:09:36;24.77;;;13.83;;
11970;SDS011;6045;42.682;23.294;2022-11-15T08:12:04;23.87;;;13.37;;
11970;SDS011;6045;42.682;23.294;2022-11-15T08:14:31;29.83;;;13.43;;
11970;SDS011;6045;42.682;23.294;2022-11-15T08:16:58;29.80;;;16.00;;
11970;SDS011;6045;42.682;23.294;2022-11-15T08:19:26;29.53;;;14.33;;
11970;SDS011;6045;42.682;23.294;2022-11-15T08:21:52;26.80;;;14.27;;
11970;SDS011;6045;42.682;23.294;2022-11-15T08:24:19;32.30;;;15.07;;
11970;SDS011;6045;42.682;23.294;2022-11-15T08:26:46;29.53;;;14.03;;
11970;SDS011;6045;42.682;23.294;2022-11-15T08:29:13;24.67;;;12.17;;
11970;SDS011;6045;42.682;23.294;2022-11-15T08:31:40;23.00;;;12.77;;
11970;SDS011;6045;42.682;23.294;2022-11-15T08:34:07;31.33;;;14.67;;
11970;SDS011;6045;42.682;23.294;2022-11-15T08:36:35;29.57;;;13.03;;
11970;SDS011;6045;42.682;23.294;2022-11-15T08:39:02;21.70;;;13.10;;
11970;SDS011;6045;42.682;23.294;2022-11-15T08:41:30;18.40;;;11.07;;
11970;SDS011;6045;42.682;23.294;2022-11-15T08:44:00;34.47;;;15.43;;
11970;SDS011;6045;42.682;23.294;2022-11-15T08:46:27;24.30;;;14.63;;
11970;SDS011;6045;42.682;23.294;2022-11-15T08:48:53;28.30;;;15.03;;
11970;SDS011;6045;42.682;23.294;2022-11-15T08:51:20;31.47;;;14.33;;
11970;SDS011;6045;42.682;23.294;2022-11-15T08:53:48;24.10;;;15.07;;
11970;SDS011;6045;42.682;23.294;2022-11-15T08:56:15;31.40;;;15.33;;
11970;SDS011;6045;42.682;23.294;2022-11-15T08:58:42;25.33;;;14.73;;
11970;SDS011;6045;42.682;23.294;2022-11-15T09:01:14;27.10;;;13.60;;
11970;SDS011;6045;42.682;23.294;2022-11-15T09:03:42;35.93;;;15.60;;
11970;SDS011;6045;42.682;23.294;2022-11-15T09:06:09;37.40;;;17.40;;
11970;SDS011;6045;42.682;23.294;2022-11-15T09:08:36;28.73;;;13.93;;
11970;SDS011;6045;42.682;23.294;2022-11-15T09:11:05;27.17;;;15.53;;
11970;SDS011;6045;42.682;23.294;2022-11-15T09:13:32;25.70;;;15.87;;
11970;SDS011;6045;42.682;23.294;2022-11-15T09:15:59;24.60;;;14.27;;
11970;SDS011;6045;42.682;23.294;2022-11-15T09:18:26;30.77;;;13.87;;
11970;SDS011;6045;42.682;23.294;2022-11-15T09:20:54;26.47;;;13.87;;
11970;SDS011;6045;42.682;23.294;2022-11-15T09:23:22;25.30;;;12.80;;
11970;SDS011;6045;42.682;23.294;2022-11-15T09:25:50;23.23;;;12.80;;
11970;SDS011;6045;42.682;23.294;2022-11-15T09:28:18;29.37;;;15.33;;
11970;SDS011;6045;42.682;23.294;2022-11-15T09:30:45;22.30;;;13.03;;
11970;SDS011;6045;42.682;23.294;2022-11-15T09:33:12;21.13;;;11.90;;
11970;SDS011;6045;42.682;23.294;2022-11-15T09:35:39;18.57;;;11.60;;
11970;SDS011;6045;42.682;23.294;2022-11-15T09:38:06;16.90;;;10.93;;
11970;SDS011;6045;42.682;23.294;2022-11-15T09:40:33;26.53;;;13.43;;
11970;SDS011;6045;42.682;23.294;2022-11-15T09:43:15;20.70;;;12.57;;
11970;SDS011;6045;42.682;23.294;2022-11-15T09:45:55;20.40;;;12.67;;
11970;SDS011;6045;42.682;23.294;2022-11-15T09:48:36;22.77;;;11.97;;
11970;SDS011;6045;42.682;23.294;2022-11-15T09:51:13;21.70;;;12.43;;
11970;SDS011;6045;42.682;23.294;2022-11-15T09:53:46;32.53;;;14.47;;
11970;SDS011;6045;42.682;23.294;2022-11-15T09:56:19;29.50;;;15.27;;
11970;SDS011;6045;42.682;23.294;2022-11-15T09:58:50;26.53;;;13.63;;
11970;SDS011;6045;42.682;23.294;2022-11-15T10:01:30;26.93;;;14.43;;
11970;SDS011;6045;42.682;23.294;2022-11-15T10:04:04;29.30;;;16.30;;
11970;SDS011;6045;42.682;23.294;2022-11-15T10:06:32;28.37;;;13.60;;
11970;SDS011;6045;42.682;23.294;2022-11-15T10:09:03;26.07;;;14.07;;
11970;SDS011;6045;42.682;23.294;2022-11-15T10:11:34;24.23;;;14.83;;
11970;SDS011;6045;42.682;23.294;2022-11-15T10:14:04;27.63;;;13.77;;
11970;SDS011;6045;42.682;23.294;2022-11-15T10:16:44;30.20;;;15.57;;
11970;SDS011;6045;42.682;23.294;2022-11-15T10:19:32;38.77;;;17.23;;
11970;SDS011;6045;42.682;23.294;2022-11-15T10:22:11;29.43;;;15.37;;
11970;SDS011;6045;42.682;23.294;2022-11-15T10:24:45;34.67;;;14.90;;
11970;SDS011;6045;42.682;23.294;2022-11-15T10:27:13;28.57;;;15.60;;
11970;SDS011;6045;42.682;23.294;2022-11-15T10:29:44;31.73;;;16.37;;
11970;SDS011;6045;42.682;23.294;2022-11-15T10:32:13;28.17;;;15.73;;
11970;SDS011;6045;42.682;23.294;2022-11-15T10:34:41;30.42;;;16.30;;
11970;SDS011;6045;42.682;23.294;2022-11-15T10:37:08;23.42;;;14.30;;
11970;SDS011;6045;42.682;23.294;2022-11-15T10:39:35;29.58;;;16.13;;
11970;SDS011;6045;42.682;23.294;2022-11-15T10:42:14;28.48;;;15.57;;
11970;SDS011;6045;42.682;23.294;2022-11-15T10:44:44;34.00;;;17.40;;
11970;SDS011;6045;42.682;23.294;2022-11-15T10:47:22;29.08;;;15.95;;
11970;SDS011;6045;42.682;23.294;2022-11-15T10:50:04;27.60;;;15.02;;
11970;SDS011;6045;42.682;23.294;2022-11-15T10:52:34;27.38;;;15.60;;
11970;SDS011;6045;42.682;23.294;2022-11-15T10:55:17;22.40;;;13.60;;
11970;SDS011;6045;42.682;23.294;2022-11-15T10:57:49;28.80;;;15.50;;
11970;SDS011;6045;42.682;23.294;2022-11-15T11:00:36;30.75;;;16.17;;
11970;SDS011;6045;42.682;23.294;2022-11-15T11:03:05;28.38;;;14.70;;
11970;SDS011;6045;42.682;23.294;2022-11-15T11:05:46;25.77;;;14.90;;
11970;SDS011;6045;42.682;23.294;2022-11-15T11:08:20;28.98;;;15.25;;
11970;SDS011;6045;42.682;23.294;2022-11-15T11:10:51;30.75;;;16.80;;
11970;SDS011;6045;42.682;23.294;2022-11-15T11:13:22;31.00;;;17.35;;
11970;SDS011;6045;42.682;23.294;2022-11-15T11:15:53;31.55;;;17.02;;
11970;SDS011;6045;42.682;23.294;2022-11-15T11:18:27;35.08;;;18.55;;
11970;SDS011;6045;42.682;23.294;2022-11-15T11:20:59;31.05;;;17.83;;
11970;SDS011;6045;42.682;23.294;2022-11-15T11:23:42;32.45;;;16.80;;
11970;SDS011;6045;42.682;23.294;2022-11-15T11:26:24;31.40;;;17.63;;
11970;SDS011;6045;42.682;23.294;2022-11-15T11:29:02;29.52;;;18.70;;
11970;SDS011;6045;42.682;23.294;2022-11-15T11:31:45;37.42;;;19.35;;
11970;SDS011;6045;42.682;23.294;2022-11-15T11:34:19;32.20;;;16.40;;
11970;SDS011;6045;42.682;23.294;2022-11-15T11:37:02;34.72;;;20.10;;
11970;SDS011;6045;42.682;23.294;2022-11-15T11:39:39;38.30;;;19.52;;
11970;SDS011;6045;42.682;23.294;2022-11-15T11:42:17;37.20;;;18.25;;
11970;SDS011;6045;42.682;23.294;2022-11-15T11:44:54;36.90;;;19.58;;
11970;SDS011;6045;42.682;23.294;2022-11-15T11:47:35;42.03;;;20.63;;
11970;SDS011;6045;42.682;23.294;2022-11-15T11:50:10;35.85;;;20.35;;
11970;SDS011;6045;42.682;23.294;2022-11-15T11:52:41;35.13;;;20.48;;
11970;SDS011;6045;42.682;23.294;2022-11-15T11:55:16;36.67;;;21.60;;
11970;SDS011;6045;42.682;23.294;2022-11-15T11:57:50;34.55;;;20.55;;
11970;SDS011;6045;42.682;23.294;2022-11-15T12:00:24;36.28;;;19.98;;
11970;SDS011;6045;42.682;23.294;2022-11-15T12:03:00;41.22;;;21.02;;
11970;SDS011;6045;42.682;23.294;2022-11-15T12:05:34;37.78;;;19.10;;
11970;SDS011;6045;42.682;23.294;2022-11-15T12:08:04;40.70;;;21.52;;
11970;SDS011;6045;42.682;23.294;2022-11-15T12:10:47;35.22;;;19.15;;
11970;SDS011;6045;42.682;23.294;2022-11-15T12:13:21;35.70;;;19.17;;
11970;SDS011;6045;42.682;23.294;2022-11-15T12:15:53;37.03;;;20.50;;
11970;SDS011;6045;42.682;23.294;2022-11-15T12:18:26;39.70;;;19.23;;
11970;SDS011;6045;42.682;23.294;2022-11-15T12:20:53;36.25;;;18.98;;
11970;SDS011;6045;42.682;23.294;2022-11-15T12:23:25;39.22;;;19.60;;
11970;SDS011;6045;42.682;23.294;2022-11-15T12:25:55;32.03;;;18.52;;
11970;SDS011;6045;42.682;23.294;2022-11-15T12:28:29;37.25;;;19.85;;
11970;SDS011;6045;42.682;23.294;2022-11-15T12:31:04;36.78;;;19.52;;
11970;SDS011;6045;42.682;23.294;2022-11-15T12:33:40;37.92;;;20.13;;
11970;SDS011;6045;42.682;23.294;2022-11-15T12:36:09;29.98;;;18.48;;
11970;SDS011;6045;42.682;23.294;2022-11-15T12:41:24;32.25;;;18.42;;
11970;SDS011;6045;42.682;23.294;2022-11-15T12:43:52;36.33;;;19.70;;
11970;SDS011;6045;42.682;23.294;2022-11-15T12:46:20;32.45;;;18.48;;
11970;SDS011;6045;42.682;23.294;2022-11-15T12:49:07;36.20;;;19.40;;
11970;SDS011;6045;42.682;23.294;2022-11-15T12:54:50;33.25;;;18.65;;
11970;SDS011;6045;42.682;23.294;2022-11-15T12:57:32;32.83;;;17.88;;
11970;SDS011;6045;42.682;23.294;2022-11-15T13:06:01;30.77;;;16.42;;
11970;SDS011;6045;42.682;23.294;2022-11-15T13:17:26;35.80;;;19.15;;
11970;SDS011;6045;42.682;23.294;2022-11-15T13:20:09;32.00;;;17.73;;
11970;SDS011;6045;42.682;23.294;2022-11-15T13:22:45;30.52;;;18.42;;
11970;SDS011;6045;42.682;23.294;2022-11-15T13:25:37;30.92;;;18.40;;
11970;SDS011;6045;42.682;23.294;2022-11-15T13:28:20;35.67;;;19.42;;
11970;SDS011;6045;42.682;23.294;2022-11-15T13:30:49;34.90;;;18.08;;
11970;SDS011;6045;42.682;23.294;2022-11-15T13:33:18;36.50;;;18.33;;
11970;SDS011;6045;42.682;23.294;2022-11-15T13:35:51;34.72;;;19.60;;
11970;SDS011;6045;42.682;23.294;2022-11-15T13:38:26;34.78;;;17.20;;
11970;SDS011;6045;42.682;23.294;2022-11-15T13:40:55;34.83;;;19.23;;
11970;SDS011;6045;42.682;23.294;2022-11-15T13:43:32;33.92;;;19.65;;
11970;SDS011;6045;42.682;23.294;2022-11-15T13:46:10;36.17;;;19.00;;
11970;SDS011;6045;42.682;23.294;2022-11-15T13:48:39;29.80;;;17.50;;
11970;SDS011;6045;42.682;23.294;2022-11-15T13:51:08;31.45;;;17.33;;
11970;SDS011;6045;42.682;23.294;2022-11-15T13:53:43;31.38;;;17.88;;
11970;SDS011;6045;42.682;23.294;2022-11-15T13:56:13;29.73;;;16.42;;
11970;SDS011;6045;42.682;23.294;2022-11-15T13:58:41;34.58;;;18.55;;
11970;SDS011;6045;42.682;23.294;2022-11-15T14:01:11;36.10;;;18.65;;
11970;SDS011;6045;42.682;23.294;2022-11-15T14:03:42;29.83;;;16.90;;
11970;SDS011;6045;42.682;23.294;2022-11-15T14:06:16;33.28;;;17.15;;
11970;SDS011;6045;42.682;23.294;2022-11-15T14:08:59;33.00;;;18.20;;
11970;SDS011;6045;42.682;23.294;2022-11-15T14:11:28;30.95;;;16.42;;
11970;SDS011;6045;42.682;23.294;2022-11-15T14:14:02;30.50;;;15.73;;
11970;SDS011;6045;42.682;23.294;2022-11-15T14:16:38;32.60;;;18.05;;
11970;SDS011;6045;42.682;23.294;2022-11-15T14:19:06;30.05;;;16.75;;
11970;SDS011;6045;42.682;23.294;2022-11-15T14:21:36;33.10;;;16.77;;
11970;SDS011;6045;42.682;23.294;2022-11-15T14:24:17;35.87;;;18.13;;
11970;SDS011;6045;42.682;23.294;2022-11-15T14:26:46;32.30;;;18.15;;
11970;SDS011;6045;42.682;23.294;2022-11-15T14:29:22;34.53;;;16.87;;
11970;SDS011;6045;42.682;23.294;2022-11-15T14:31:50;31.90;;;17.07;;
11970;SDS011;6045;42.682;23.294;2022-11-15T14:34:17;33.43;;;17.03;;
11970;SDS011;6045;42.682;23.294;2022-11-15T14:36:43;37.13;;;17.53;;
11970;SDS011;6045;42.682;23.294;2022-11-15T14:39:10;32.73;;;17.57;;
11970;SDS011;6045;42.682;23.294;2022-11-15T14:41:38;27.23;;;15.43;;
11970;SDS011;6045;42.682;23.294;2022-11-15T14:44:05;25.40;;;15.30;;
11970;SDS011;6045;42.682;23.294;2022-11-15T14:46:32;28.33;;;16.57;;
11970;SDS011;6045;42.682;23.294;2022-11-15T14:49:02;29.70;;;16.20;;
11970;SDS011;6045;42.682;23.294;2022-11-15T14:51:29;29.67;;;16.43;;
11970;SDS011;6045;42.682;23.294;2022-11-15T14:53:58;27.50;;;16.60;;
11970;SDS011;6045;42.682;23.294;2022-11-15T14:56:24;31.67;;;17.20;;
11970;SDS011;6045;42.682;23.294;2022-11-15T14:58:53;25.33;;;14.13;;
11970;SDS011;6045;42.682;23.294;2022-11-15T15:01:20;27.30;;;15.83;;
11970;SDS011;6045;42.682;23.294;2022-11-15T15:03:50;27.40;;;15.87;;